sensor_id;sensor_type;location;lat;lon;timestamp;P1;durP1;ratioP1;P2;durP2;ratioP2
19257;SDS011;9763;48.780;9.212;2023-08-06T00:00:04;1.70;;;1.50;;
19257;SDS011;9763;48.780;9.212;2023-08-06T00:03:31;1.50;;;1.40;;
19257;SDS011;9763;48.780;9.212;2023-08-06T00:06:55;1.60;;;1.33;;
19257;SDS011;9763;48.780;9.212;2023-08-06T00:10:19;2.67;;;1.60;;
19257;SDS011;9763;48.780;9.212;2023-08-06T00:13:44;1.40;;;1.13;;
19257;SDS011;9763;48.780;9.212;2023-08-06T00:17:09;1.60;;;1.40;;
19257;SDS011;9763;48.780;9.212;2023-08-06T00:20:33;1.70;;;1.33;;
19257;SDS011;9763;48.780;9.212;2023-08-06T00:23:57;1.67;;;1.50;;
19257;SDS011;9763;48.780;9.212;2023-08-06T00:27:20;1.50;;;1.30;;
19257;SDS011;9763;48.780;9.212;2023-08-06T00:30:45;1.50;;;1.30;;
19257;SDS011;9763;48.780;9.212;2023-08-06T00:34:09;1.40;;;1.30;;
19257;SDS011;9763;48.780;9.212;2023-08-06T00:37:33;1.37;;;1.27;;
19257;SDS011;9763;48.780;9.212;2023-08-06T00:40:56;1.57;;;1.10;;
19257;SDS011;9763;48.780;9.212;2023-08-06T00:44:20;1.30;;;1.07;;
19257;SDS011;9763;48.780;9.212;2023-08-06T00:47:45;1.37;;;1.07;;
19257;SDS011;9763;48.780;9.212;2023-08-06T00:51:10;1.50;;;1.30;;
19257;SDS011;9763;48.780;9.212;2023-08-06T00:54:34;1.60;;;1.40;;
19257;SDS011;9763;48.780;9.212;2023-08-06T00:57:59;1.87;;;1.20;;
19257;SDS011;9763;48.780;9.212;2023-08-06T01:01:23;1.40;;;1.10;;
19257;SDS011;9763;48.780;9.212;2023-08-06T01:04:48;1.23;;;1.00;;
19257;SDS011;9763;48.780;9.212;2023-08-06T01:08:15;1.60;;;1.10;;
19257;SDS011;9763;48.780;9.212;2023-08-06T01:11:54;1.40;;;1.10;;
19257;SDS011;9763;48.780;9.212;2023-08-06T01:15:31;1.37;;;1.00;;
19257;SDS011;9763;48.780;9.212;2023-08-06T01:19:15;1.40;;;1.10;;
19257;SDS011;9763;48.780;9.212;2023-08-06T01:22:41;1.63;;;1.30;;
19257;SDS011;9763;48.780;9.212;2023-08-06T01:26:05;1.40;;;1.10;;
19257;SDS011;9763;48.780;9.212;2023-08-06T01:29:43;1.50;;;1.27;;
19257;SDS011;9763;48.780;9.212;2023-08-06T01:33:14;2.00;;;1.07;;
19257;SDS011;9763;48.780;9.212;2023-08-06T01:36:44;1.90;;;1.50;;
19257;SDS011;9763;48.780;9.212;2023-08-06T01:40:11;1.30;;;1.00;;
19257;SDS011;9763;48.780;9.212;2023-08-06T01:43:36;1.60;;;1.10;;
19257;SDS011;9763;48.780;9.212;2023-08-06T01:46:59;6.13;;;2.23;;
19257;SDS011;9763;48.780;9.212;2023-08-06T01:50:24;1.50;;;1.23;;
19257;SDS011;9763;48.780;9.212;2023-08-06T01:53:47;1.30;;;1.10;;
19257;SDS011;9763;48.780;9.212;2023-08-06T01:57:14;1.30;;;1.10;;
19257;SDS011;9763;48.780;9.212;2023-08-06T02:00:37;1.50;;;1.10;;
19257;SDS011;9763;48.780;9.212;2023-08-06T02:04:01;1.40;;;1.07;;
19257;SDS011;9763;48.780;9.212;2023-08-06T02:07:25;1.40;;;1.10;;
19257;SDS011;9763;48.780;9.212;2023-08-06T02:10:49;1.47;;;1.07;;
19257;SDS011;9763;48.780;9.212;2023-08-06T02:14:14;1.40;;;1.10;;
19257;SDS011;9763;48.780;9.212;2023-08-06T02:17:38;1.83;;;1.53;;
19257;SDS011;9763;48.780;9.212;2023-08-06T02:21:01;1.60;;;1.10;;
19257;SDS011;9763;48.780;9.212;2023-08-06T02:24:25;1.50;;;1.30;;
19257;SDS011;9763;48.780;9.212;2023-08-06T02:27:49;2.03;;;1.17;;
19257;SDS011;9763;48.780;9.212;2023-08-06T02:31:14;1.60;;;1.03;;
19257;SDS011;9763;48.780;9.212;2023-08-06T02:34:37;1.73;;;1.30;;
19257;SDS011;9763;48.780;9.212;2023-08-06T02:38:02;1.40;;;1.10;;
19257;SDS011;9763;48.780;9.212;2023-08-06T02:41:25;1.40;;;1.03;;
19257;SDS011;9763;48.780;9.212;2023-08-06T02:44:51;1.60;;;0.97;;
19257;SDS011;9763;48.780;9.212;2023-08-06T02:48:18;1.30;;;1.10;;
19257;SDS011;9763;48.780;9.212;2023-08-06T02:51:44;1.70;;;1.10;;
19257;SDS011;9763;48.780;9.212;2023-08-06T02:55:08;1.50;;;1.13;;
19257;SDS011;9763;48.780;9.212;2023-08-06T02:58:37;1.40;;;1.07;;
19257;SDS011;9763;48.780;9.212;2023-08-06T03:02:09;1.47;;;1.20;;
19257;SDS011;9763;48.780;9.212;2023-08-06T03:05:52;2.00;;;1.30;;
19257;SDS011;9763;48.780;9.212;2023-08-06T03:09:27;2.47;;;1.00;;
19257;SDS011;9763;48.780;9.212;2023-08-06T03:12:52;1.50;;;1.00;;
19257;SDS011;9763;48.780;9.212;2023-08-06T03:16:17;1.70;;;1.20;;
19257;SDS011;9763;48.780;9.212;2023-08-06T03:19:41;1.70;;;1.20;;
19257;SDS011;9763;48.780;9.212;2023-08-06T03:23:07;1.30;;;1.00;;
19257;SDS011;9763;48.780;9.212;2023-08-06T03:26:31;1.30;;;1.10;;
19257;SDS011;9763;48.780;9.212;2023-08-06T03:29:56;1.30;;;0.90;;
19257;SDS011;9763;48.780;9.212;2023-08-06T03:33:21;2.10;;;1.20;;
19257;SDS011;9763;48.780;9.212;2023-08-06T03:36:45;1.30;;;1.00;;
19257;SDS011;9763;48.780;9.212;2023-08-06T03:40:10;1.40;;;1.17;;
19257;SDS011;9763;48.780;9.212;2023-08-06T03:43:34;1.40;;;1.07;;
19257;SDS011;9763;48.780;9.212;2023-08-06T03:47:01;1.73;;;1.07;;
19257;SDS011;9763;48.780;9.212;2023-08-06T03:50:25;1.30;;;0.93;;
19257;SDS011;9763;48.780;9.212;2023-08-06T03:53:49;1.30;;;1.10;;
19257;SDS011;9763;48.780;9.212;2023-08-06T03:57:15;1.40;;;1.00;;
19257;SDS011;9763;48.780;9.212;2023-08-06T04:00:39;1.40;;;1.00;;
19257;SDS011;9763;48.780;9.212;2023-08-06T04:04:02;1.67;;;1.20;;
19257;SDS011;9763;48.780;9.212;2023-08-06T04:07:26;1.70;;;1.03;;
19257;SDS011;9763;48.780;9.212;2023-08-06T04:10:51;1.77;;;1.00;;
19257;SDS011;9763;48.780;9.212;2023-08-06T04:14:17;1.60;;;1.20;;
19257;SDS011;9763;48.780;9.212;2023-08-06T04:17:41;1.57;;;1.20;;
19257;SDS011;9763;48.780;9.212;2023-08-06T04:21:05;1.40;;;1.10;;
19257;SDS011;9763;48.780;9.212;2023-08-06T04:24:29;1.93;;;1.20;;
19257;SDS011;9763;48.780;9.212;2023-08-06T04:27:53;1.30;;;1.00;;
19257;SDS011;9763;48.780;9.212;2023-08-06T04:31:18;1.70;;;1.10;;
19257;SDS011;9763;48.780;9.212;2023-08-06T04:34:42;1.40;;;0.83;;
19257;SDS011;9763;48.780;9.212;2023-08-06T04:38:06;1.80;;;1.10;;
19257;SDS011;9763;48.780;9.212;2023-08-06T04:41:30;1.80;;;1.50;;
19257;SDS011;9763;48.780;9.212;2023-08-06T04:44:54;1.63;;;1.07;;
19257;SDS011;9763;48.780;9.212;2023-08-06T04:48:19;1.50;;;1.10;;
19257;SDS011;9763;48.780;9.212;2023-08-06T04:51:43;1.73;;;1.13;;
19257;SDS011;9763;48.780;9.212;2023-08-06T04:55:07;1.60;;;1.10;;
19257;SDS011;9763;48.780;9.212;2023-08-06T04:58:31;1.57;;;1.20;;
19257;SDS011;9763;48.780;9.212;2023-08-06T05:01:55;1.97;;;1.20;;
19257;SDS011;9763;48.780;9.212;2023-08-06T05:05:20;1.40;;;1.20;;
19257;SDS011;9763;48.780;9.212;2023-08-06T05:08:44;1.70;;;1.10;;
19257;SDS011;9763;48.780;9.212;2023-08-06T05:12:09;1.50;;;1.20;;
19257;SDS011;9763;48.780;9.212;2023-08-06T05:15:32;1.53;;;1.03;;
19257;SDS011;9763;48.780;9.212;2023-08-06T05:18:56;1.30;;;0.97;;
19257;SDS011;9763;48.780;9.212;2023-08-06T05:22:21;1.30;;;0.80;;
19257;SDS011;9763;48.780;9.212;2023-08-06T05:25:45;1.30;;;0.87;;
19257;SDS011;9763;48.780;9.212;2023-08-06T05:29:08;1.80;;;1.00;;
19257;SDS011;9763;48.780;9.212;2023-08-06T05:32:32;1.33;;;0.93;;
19257;SDS011;9763;48.780;9.212;2023-08-06T05:35:56;2.27;;;0.97;;
19257;SDS011;9763;48.780;9.212;2023-08-06T05:39:21;2.43;;;0.90;;
19257;SDS011;9763;48.780;9.212;2023-08-06T05:42:44;1.40;;;1.00;;
19257;SDS011;9763;48.780;9.212;2023-08-06T05:46:08;1.13;;;0.80;;
19257;SDS011;9763;48.780;9.212;2023-08-06T05:49:31;1.20;;;0.70;;
19257;SDS011;9763;48.780;9.212;2023-08-06T05:52:55;1.20;;;0.83;;
19257;SDS011;9763;48.780;9.212;2023-08-06T05:56:23;1.30;;;0.90;;
19257;SDS011;9763;48.780;9.212;2023-08-06T05:59:47;1.40;;;1.00;;
19257;SDS011;9763;48.780;9.212;2023-08-06T06:03:10;1.27;;;0.73;;
19257;SDS011;9763;48.780;9.212;2023-08-06T06:06:34;1.40;;;0.80;;
19257;SDS011;9763;48.780;9.212;2023-08-06T06:09:58;1.40;;;0.80;;
19257;SDS011;9763;48.780;9.212;2023-08-06T06:13:23;1.30;;;0.70;;
19257;SDS011;9763;48.780;9.212;2023-08-06T06:16:47;1.60;;;0.90;;
19257;SDS011;9763;48.780;9.212;2023-08-06T06:20:11;1.37;;;0.87;;
19257;SDS011;9763;48.780;9.212;2023-08-06T06:23:34;1.40;;;1.00;;
19257;SDS011;9763;48.780;9.212;2023-08-06T06:26:58;1.67;;;0.80;;
19257;SDS011;9763;48.780;9.212;2023-08-06T06:30:23;1.30;;;0.70;;
19257;SDS011;9763;48.780;9.212;2023-08-06T06:33:46;1.30;;;0.80;;
19257;SDS011;9763;48.780;9.212;2023-08-06T06:37:10;1.10;;;0.60;;
19257;SDS011;9763;48.780;9.212;2023-08-06T06:40:34;1.30;;;0.80;;
19257;SDS011;9763;48.780;9.212;2023-08-06T06:43:57;1.40;;;0.70;;
19257;SDS011;9763;48.780;9.212;2023-08-06T06:47:22;1.30;;;0.70;;
19257;SDS011;9763;48.780;9.212;2023-08-06T06:50:46;1.20;;;0.70;;
19257;SDS011;9763;48.780;9.212;2023-08-06T06:54:10;1.30;;;0.80;;
19257;SDS011;9763;48.780;9.212;2023-08-06T06:57:34;1.30;;;0.70;;
19257;SDS011;9763;48.780;9.212;2023-08-06T07:00:58;1.23;;;0.70;;
19257;SDS011;9763;48.780;9.212;2023-08-06T07:04:23;1.50;;;0.70;;
19257;SDS011;9763;48.780;9.212;2023-08-06T07:07:47;2.63;;;1.17;;
19257;SDS011;9763;48.780;9.212;2023-08-06T07:11:11;1.40;;;0.80;;
19257;SDS011;9763;48.780;9.212;2023-08-06T07:14:34;1.10;;;0.60;;
19257;SDS011;9763;48.780;9.212;2023-08-06T07:17:58;1.63;;;0.80;;
19257;SDS011;9763;48.780;9.212;2023-08-06T07:21:23;1.30;;;0.80;;
19257;SDS011;9763;48.780;9.212;2023-08-06T07:24:47;1.50;;;0.70;;
19257;SDS011;9763;48.780;9.212;2023-08-06T07:28:10;1.20;;;0.80;;
19257;SDS011;9763;48.780;9.212;2023-08-06T07:31:34;1.17;;;0.77;;
19257;SDS011;9763;48.780;9.212;2023-08-06T07:34:58;1.20;;;0.70;;
19257;SDS011;9763;48.780;9.212;2023-08-06T07:38:24;1.40;;;0.70;;
19257;SDS011;9763;48.780;9.212;2023-08-06T07:41:48;1.10;;;0.60;;
19257;SDS011;9763;48.780;9.212;2023-08-06T07:45:12;1.10;;;0.60;;
19257;SDS011;9763;48.780;9.212;2023-08-06T07:48:37;1.20;;;0.60;;
19257;SDS011;9763;48.780;9.212;2023-08-06T07:52:00;1.10;;;0.70;;
19257;SDS011;9763;48.780;9.212;2023-08-06T07:55:26;1.20;;;0.70;;
19257;SDS011;9763;48.780;9.212;2023-08-06T07:58:50;1.30;;;0.70;;
19257;SDS011;9763;48.780;9.212;2023-08-06T08:02:14;1.10;;;0.60;;
19257;SDS011;9763;48.780;9.212;2023-08-06T08:05:37;1.10;;;0.67;;
19257;SDS011;9763;48.780;9.212;2023-08-06T08:09:01;1.10;;;0.60;;
19257;SDS011;9763;48.780;9.212;2023-08-06T08:12:26;1.20;;;0.60;;
19257;SDS011;9763;48.780;9.212;2023-08-06T08:15:50;1.20;;;0.60;;
19257;SDS011;9763;48.780;9.212;2023-08-06T08:19:19;1.50;;;0.70;;
19257;SDS011;9763;48.780;9.212;2023-08-06T08:22:44;1.10;;;0.50;;
19257;SDS011;9763;48.780;9.212;2023-08-06T08:26:08;1.10;;;0.60;;
19257;SDS011;9763;48.780;9.212;2023-08-06T08:29:33;1.10;;;0.60;;
19257;SDS011;9763;48.780;9.212;2023-08-06T08:32:56;1.10;;;0.50;;
19257;SDS011;9763;48.780;9.212;2023-08-06T08:36:20;1.10;;;0.50;;
19257;SDS011;9763;48.780;9.212;2023-08-06T08:39:44;1.10;;;0.60;;
19257;SDS011;9763;48.780;9.212;2023-08-06T08:43:08;1.13;;;0.60;;
19257;SDS011;9763;48.780;9.212;2023-08-06T08:46:34;1.10;;;0.50;;
19257;SDS011;9763;48.780;9.212;2023-08-06T08:50:01;1.10;;;0.57;;
19257;SDS011;9763;48.780;9.212;2023-08-06T08:53:27;1.10;;;0.53;;
19257;SDS011;9763;48.780;9.212;2023-08-06T08:56:51;1.20;;;0.60;;
19257;SDS011;9763;48.780;9.212;2023-08-06T09:00:16;1.30;;;0.70;;
19257;SDS011;9763;48.780;9.212;2023-08-06T09:03:42;1.10;;;0.60;;
19257;SDS011;9763;48.780;9.212;2023-08-06T09:07:07;1.10;;;0.53;;
19257;SDS011;9763;48.780;9.212;2023-08-06T09:10:39;1.40;;;0.60;;
19257;SDS011;9763;48.780;9.212;2023-08-06T09:14:06;1.13;;;0.60;;
19257;SDS011;9763;48.780;9.212;2023-08-06T09:17:31;1.10;;;0.50;;
19257;SDS011;9763;48.780;9.212;2023-08-06T09:20:57;1.10;;;0.50;;
19257;SDS011;9763;48.780;9.212;2023-08-06T09:24:20;1.10;;;0.50;;
19257;SDS011;9763;48.780;9.212;2023-08-06T09:27:45;1.20;;;0.50;;
19257;SDS011;9763;48.780;9.212;2023-08-06T09:31:09;1.10;;;0.50;;
19257;SDS011;9763;48.780;9.212;2023-08-06T09:34:33;1.10;;;0.60;;
19257;SDS011;9763;48.780;9.212;2023-08-06T09:38:05;1.50;;;0.60;;
19257;SDS011;9763;48.780;9.212;2023-08-06T09:41:30;1.10;;;0.50;;
19257;SDS011;9763;48.780;9.212;2023-08-06T09:44:54;1.10;;;0.50;;
19257;SDS011;9763;48.780;9.212;2023-08-06T09:48:29;1.13;;;0.60;;
19257;SDS011;9763;48.780;9.212;2023-08-06T09:51:54;1.10;;;0.60;;
19257;SDS011;9763;48.780;9.212;2023-08-06T09:55:21;1.10;;;0.60;;
19257;SDS011;9763;48.780;9.212;2023-08-06T09:58:46;1.10;;;0.60;;
19257;SDS011;9763;48.780;9.212;2023-08-06T10:02:12;1.50;;;0.60;;
19257;SDS011;9763;48.780;9.212;2023-08-06T10:05:36;1.10;;;0.60;;
19257;SDS011;9763;48.780;9.212;2023-08-06T10:09:02;1.10;;;0.60;;
19257;SDS011;9763;48.780;9.212;2023-08-06T10:12:28;1.10;;;0.60;;
19257;SDS011;9763;48.780;9.212;2023-08-06T10:15:57;1.10;;;0.60;;
19257;SDS011;9763;48.780;9.212;2023-08-06T10:19:22;1.10;;;0.57;;
19257;SDS011;9763;48.780;9.212;2023-08-06T10:22:55;1.20;;;0.60;;
19257;SDS011;9763;48.780;9.212;2023-08-06T10:26:27;1.10;;;0.60;;
19257;SDS011;9763;48.780;9.212;2023-08-06T10:29:53;1.10;;;0.70;;
19257;SDS011;9763;48.780;9.212;2023-08-06T10:33:19;1.10;;;0.60;;
19257;SDS011;9763;48.780;9.212;2023-08-06T10:36:44;1.10;;;0.60;;
19257;SDS011;9763;48.780;9.212;2023-08-06T10:40:08;1.53;;;0.70;;
19257;SDS011;9763;48.780;9.212;2023-08-06T10:43:32;1.10;;;0.60;;
19257;SDS011;9763;48.780;9.212;2023-08-06T10:50:51;1.20;;;0.60;;
19257;SDS011;9763;48.780;9.212;2023-08-06T10:54:15;1.10;;;0.60;;
19257;SDS011;9763;48.780;9.212;2023-08-06T10:57:39;1.20;;;0.53;;
19257;SDS011;9763;48.780;9.212;2023-08-06T11:01:03;1.10;;;0.50;;
19257;SDS011;9763;48.780;9.212;2023-08-06T11:04:31;1.10;;;0.60;;
19257;SDS011;9763;48.780;9.212;2023-08-06T11:07:55;1.67;;;0.60;;
19257;SDS011;9763;48.780;9.212;2023-08-06T11:11:19;1.10;;;0.57;;
19257;SDS011;9763;48.780;9.212;2023-08-06T11:14:49;1.10;;;0.63;;
19257;SDS011;9763;48.780;9.212;2023-08-06T11:18:14;1.20;;;0.70;;
19257;SDS011;9763;48.780;9.212;2023-08-06T11:21:39;1.10;;;0.70;;
19257;SDS011;9763;48.780;9.212;2023-08-06T11:25:06;1.23;;;0.80;;
19257;SDS011;9763;48.780;9.212;2023-08-06T11:28:30;1.30;;;0.80;;
19257;SDS011;9763;48.780;9.212;2023-08-06T11:31:59;1.20;;;0.70;;
19257;SDS011;9763;48.780;9.212;2023-08-06T11:35:27;1.20;;;0.70;;
19257;SDS011;9763;48.780;9.212;2023-08-06T11:38:53;1.30;;;0.70;;
19257;SDS011;9763;48.780;9.212;2023-08-06T11:42:17;1.20;;;0.83;;
19257;SDS011;9763;48.780;9.212;2023-08-06T11:45:40;1.60;;;1.17;;
19257;SDS011;9763;48.780;9.212;2023-08-06T11:49:04;1.30;;;0.90;;
19257;SDS011;9763;48.780;9.212;2023-08-06T11:52:28;1.30;;;0.80;;
19257;SDS011;9763;48.780;9.212;2023-08-06T11:55:53;2.10;;;1.10;;
19257;SDS011;9763;48.780;9.212;2023-08-06T11:59:17;1.40;;;0.90;;
19257;SDS011;9763;48.780;9.212;2023-08-06T12:02:44;1.30;;;1.00;;
19257;SDS011;9763;48.780;9.212;2023-08-06T12:06:11;1.50;;;1.20;;
19257;SDS011;9763;48.780;9.212;2023-08-06T12:09:35;1.73;;;1.10;;
19257;SDS011;9763;48.780;9.212;2023-08-06T12:13:01;1.40;;;1.03;;
19257;SDS011;9763;48.780;9.212;2023-08-06T12:16:25;1.40;;;0.90;;
19257;SDS011;9763;48.780;9.212;2023-08-06T12:19:51;1.60;;;0.90;;
19257;SDS011;9763;48.780;9.212;2023-08-06T12:23:15;1.33;;;0.97;;
19257;SDS011;9763;48.780;9.212;2023-08-06T12:26:39;1.60;;;1.10;;
19257;SDS011;9763;48.780;9.212;2023-08-06T12:30:04;1.63;;;1.20;;
19257;SDS011;9763;48.780;9.212;2023-08-06T12:33:29;1.37;;;1.13;;
19257;SDS011;9763;48.780;9.212;2023-08-06T12:36:53;1.70;;;1.40;;
19257;SDS011;9763;48.780;9.212;2023-08-06T12:40:16;2.43;;;1.10;;
19257;SDS011;9763;48.780;9.212;2023-08-06T12:43:56;1.50;;;1.20;;
19257;SDS011;9763;48.780;9.212;2023-08-06T12:47:21;1.40;;;0.97;;
19257;SDS011;9763;48.780;9.212;2023-08-06T12:50:45;1.60;;;1.20;;
19257;SDS011;9763;48.780;9.212;2023-08-06T12:54:08;1.60;;;1.10;;
19257;SDS011;9763;48.780;9.212;2023-08-06T12:57:32;1.53;;;1.10;;
19257;SDS011;9763;48.780;9.212;2023-08-06T13:01:17;1.70;;;1.10;;
19257;SDS011;9763;48.780;9.212;2023-08-06T13:04:42;1.70;;;1.00;;
19257;SDS011;9763;48.780;9.212;2023-08-06T13:08:06;1.20;;;0.90;;
19257;SDS011;9763;48.780;9.212;2023-08-06T13:11:30;2.37;;;1.00;;
19257;SDS011;9763;48.780;9.212;2023-08-06T13:14:54;2.60;;;1.13;;
19257;SDS011;9763;48.780;9.212;2023-08-06T13:18:20;1.30;;;0.87;;
19257;SDS011;9763;48.780;9.212;2023-08-06T13:22:01;1.20;;;0.80;;
19257;SDS011;9763;48.780;9.212;2023-08-06T13:25:28;1.60;;;1.13;;
19257;SDS011;9763;48.780;9.212;2023-08-06T13:28:52;1.70;;;1.00;;
19257;SDS011;9763;48.780;9.212;2023-08-06T13:32:15;1.30;;;1.00;;
19257;SDS011;9763;48.780;9.212;2023-08-06T13:35:39;1.70;;;1.00;;
19257;SDS011;9763;48.780;9.212;2023-08-06T13:39:04;2.03;;;1.20;;
19257;SDS011;9763;48.780;9.212;2023-08-06T13:42:28;1.30;;;0.90;;
19257;SDS011;9763;48.780;9.212;2023-08-06T13:45:54;2.03;;;1.00;;
19257;SDS011;9763;48.780;9.212;2023-08-06T13:49:18;1.40;;;0.90;;
19257;SDS011;9763;48.780;9.212;2023-08-06T13:52:43;1.77;;;0.97;;
19257;SDS011;9763;48.780;9.212;2023-08-06T13:56:08;1.40;;;0.83;;
19257;SDS011;9763;48.780;9.212;2023-08-06T13:59:32;1.20;;;0.80;;
19257;SDS011;9763;48.780;9.212;2023-08-06T14:02:56;1.30;;;0.87;;
19257;SDS011;9763;48.780;9.212;2023-08-06T14:06:20;1.20;;;0.80;;
19257;SDS011;9763;48.780;9.212;2023-08-06T14:09:44;1.50;;;1.00;;
19257;SDS011;9763;48.780;9.212;2023-08-06T14:13:10;1.17;;;0.70;;
19257;SDS011;9763;48.780;9.212;2023-08-06T14:16:34;1.43;;;0.90;;
19257;SDS011;9763;48.780;9.212;2023-08-06T14:19:58;1.70;;;1.00;;
19257;SDS011;9763;48.780;9.212;2023-08-06T14:23:22;2.17;;;1.10;;
19257;SDS011;9763;48.780;9.212;2023-08-06T14:26:46;2.33;;;0.80;;
19257;SDS011;9763;48.780;9.212;2023-08-06T14:30:11;1.20;;;0.80;;
19257;SDS011;9763;48.780;9.212;2023-08-06T14:33:35;1.20;;;0.80;;
19257;SDS011;9763;48.780;9.212;2023-08-06T14:36:59;1.30;;;0.80;;
19257;SDS011;9763;48.780;9.212;2023-08-06T14:40:22;1.50;;;0.90;;
19257;SDS011;9763;48.780;9.212;2023-08-06T14:43:48;1.30;;;0.80;;
19257;SDS011;9763;48.780;9.212;2023-08-06T14:47:13;1.83;;;0.90;;
19257;SDS011;9763;48.780;9.212;2023-08-06T14:50:37;1.30;;;0.80;;
19257;SDS011;9763;48.780;9.212;2023-08-06T14:54:02;1.20;;;0.80;;
19257;SDS011;9763;48.780;9.212;2023-08-06T14:57:26;1.60;;;1.30;;
19257;SDS011;9763;48.780;9.212;2023-08-06T15:00:50;1.70;;;0.80;;
19257;SDS011;9763;48.780;9.212;2023-08-06T15:04:16;1.30;;;0.90;;
19257;SDS011;9763;48.780;9.212;2023-08-06T15:07:40;1.23;;;0.83;;
19257;SDS011;9763;48.780;9.212;2023-08-06T15:11:04;1.40;;;1.00;;
19257;SDS011;9763;48.780;9.212;2023-08-06T15:14:27;1.20;;;0.80;;
19257;SDS011;9763;48.780;9.212;2023-08-06T15:17:51;1.40;;;0.90;;
19257;SDS011;9763;48.780;9.212;2023-08-06T15:21:16;1.30;;;0.90;;
19257;SDS011;9763;48.780;9.212;2023-08-06T15:24:40;1.73;;;0.93;;
19257;SDS011;9763;48.780;9.212;2023-08-06T15:28:04;1.43;;;1.00;;
19257;SDS011;9763;48.780;9.212;2023-08-06T15:31:35;1.30;;;0.90;;
19257;SDS011;9763;48.780;9.212;2023-08-06T15:35:00;1.60;;;1.00;;
19257;SDS011;9763;48.780;9.212;2023-08-06T15:38:26;2.00;;;1.03;;
19257;SDS011;9763;48.780;9.212;2023-08-06T15:41:50;1.20;;;0.90;;
19257;SDS011;9763;48.780;9.212;2023-08-06T15:45:14;3.00;;;0.90;;
19257;SDS011;9763;48.780;9.212;2023-08-06T15:48:37;1.20;;;0.80;;
19257;SDS011;9763;48.780;9.212;2023-08-06T15:52:01;1.30;;;0.80;;
19257;SDS011;9763;48.780;9.212;2023-08-06T15:55:27;1.30;;;0.93;;
19257;SDS011;9763;48.780;9.212;2023-08-06T15:58:51;1.27;;;0.80;;
19257;SDS011;9763;48.780;9.212;2023-08-06T16:02:16;1.37;;;0.90;;
19257;SDS011;9763;48.780;9.212;2023-08-06T16:05:40;1.50;;;0.90;;
19257;SDS011;9763;48.780;9.212;2023-08-06T16:09:05;1.30;;;1.00;;
19257;SDS011;9763;48.780;9.212;2023-08-06T16:12:31;1.77;;;1.00;;
19257;SDS011;9763;48.780;9.212;2023-08-06T16:15:55;1.83;;;1.00;;
19257;SDS011;9763;48.780;9.212;2023-08-06T16:19:19;1.30;;;0.80;;
19257;SDS011;9763;48.780;9.212;2023-08-06T16:22:43;1.53;;;1.10;;
19257;SDS011;9763;48.780;9.212;2023-08-06T16:26:06;2.47;;;1.20;;
19257;SDS011;9763;48.780;9.212;2023-08-06T16:29:31;1.20;;;0.83;;
19257;SDS011;9763;48.780;9.212;2023-08-06T16:32:57;1.80;;;1.03;;
19257;SDS011;9763;48.780;9.212;2023-08-06T16:36:21;1.70;;;1.03;;
19257;SDS011;9763;48.780;9.212;2023-08-06T16:39:45;1.50;;;0.93;;
19257;SDS011;9763;48.780;9.212;2023-08-06T16:43:09;1.67;;;1.10;;
19257;SDS011;9763;48.780;9.212;2023-08-06T16:46:34;1.30;;;0.90;;
19257;SDS011;9763;48.780;9.212;2023-08-06T16:49:59;1.40;;;1.00;;
19257;SDS011;9763;48.780;9.212;2023-08-06T16:53:23;1.70;;;0.90;;
19257;SDS011;9763;48.780;9.212;2023-08-06T16:56:46;1.50;;;1.10;;
19257;SDS011;9763;48.780;9.212;2023-08-06T17:00:11;2.67;;;1.10;;
19257;SDS011;9763;48.780;9.212;2023-08-06T17:03:38;1.60;;;1.10;;
19257;SDS011;9763;48.780;9.212;2023-08-06T17:07:01;1.40;;;1.00;;
19257;SDS011;9763;48.780;9.212;2023-08-06T17:10:25;1.37;;;1.07;;
19257;SDS011;9763;48.780;9.212;2023-08-06T17:13:49;1.30;;;1.00;;
19257;SDS011;9763;48.780;9.212;2023-08-06T17:17:13;1.63;;;1.00;;
19257;SDS011;9763;48.780;9.212;2023-08-06T17:20:40;3.00;;;1.17;;
19257;SDS011;9763;48.780;9.212;2023-08-06T17:24:04;2.10;;;1.00;;
19257;SDS011;9763;48.780;9.212;2023-08-06T17:27:28;1.40;;;1.00;;
19257;SDS011;9763;48.780;9.212;2023-08-06T17:30:52;1.80;;;1.47;;
19257;SDS011;9763;48.780;9.212;2023-08-06T17:34:16;1.30;;;0.90;;
19257;SDS011;9763;48.780;9.212;2023-08-06T17:37:41;1.77;;;1.17;;
19257;SDS011;9763;48.780;9.212;2023-08-06T17:41:05;1.47;;;1.07;;
19257;SDS011;9763;48.780;9.212;2023-08-06T17:44:29;1.50;;;1.20;;
19257;SDS011;9763;48.780;9.212;2023-08-06T17:47:53;1.40;;;1.10;;
19257;SDS011;9763;48.780;9.212;2023-08-06T17:51:17;1.27;;;0.90;;
19257;SDS011;9763;48.780;9.212;2023-08-06T17:54:42;1.70;;;1.30;;
19257;SDS011;9763;48.780;9.212;2023-08-06T17:58:06;1.47;;;0.93;;
19257;SDS011;9763;48.780;9.212;2023-08-06T18:01:31;1.80;;;1.10;;
19257;SDS011;9763;48.780;9.212;2023-08-06T18:04:55;1.53;;;1.30;;
19257;SDS011;9763;48.780;9.212;2023-08-06T18:08:19;1.40;;;1.03;;
19257;SDS011;9763;48.780;9.212;2023-08-06T18:11:44;1.30;;;0.93;;
19257;SDS011;9763;48.780;9.212;2023-08-06T18:15:08;1.40;;;1.20;;
19257;SDS011;9763;48.780;9.212;2023-08-06T18:18:33;1.80;;;1.00;;
19257;SDS011;9763;48.780;9.212;2023-08-06T18:21:57;1.83;;;1.20;;
19257;SDS011;9763;48.780;9.212;2023-08-06T18:25:23;2.20;;;1.23;;
19257;SDS011;9763;48.780;9.212;2023-08-06T18:28:49;1.60;;;1.20;;
19257;SDS011;9763;48.780;9.212;2023-08-06T18:32:13;1.30;;;1.00;;
19257;SDS011;9763;48.780;9.212;2023-08-06T18:35:39;2.13;;;1.07;;
19257;SDS011;9763;48.780;9.212;2023-08-06T18:39:02;1.70;;;1.13;;
19257;SDS011;9763;48.780;9.212;2023-08-06T18:42:26;2.00;;;1.30;;
19257;SDS011;9763;48.780;9.212;2023-08-06T18:45:51;2.43;;;1.20;;
19257;SDS011;9763;48.780;9.212;2023-08-06T18:49:16;2.53;;;1.20;;
19257;SDS011;9763;48.780;9.212;2023-08-06T18:52:40;1.60;;;1.13;;
19257;SDS011;9763;48.780;9.212;2023-08-06T18:56:05;1.60;;;1.17;;
19257;SDS011;9763;48.780;9.212;2023-08-06T18:59:28;2.03;;;1.30;;
19257;SDS011;9763;48.780;9.212;2023-08-06T19:02:55;1.60;;;1.20;;
19257;SDS011;9763;48.780;9.212;2023-08-06T19:06:18;2.23;;;1.50;;
19257;SDS011;9763;48.780;9.212;2023-08-06T19:09:44;1.97;;;1.40;;
19257;SDS011;9763;48.780;9.212;2023-08-06T19:13:08;3.37;;;1.30;;
19257;SDS011;9763;48.780;9.212;2023-08-06T19:16:34;1.63;;;1.20;;
19257;SDS011;9763;48.780;9.212;2023-08-06T19:19:59;1.67;;;1.27;;
19257;SDS011;9763;48.780;9.212;2023-08-06T19:23:23;2.30;;;1.30;;
19257;SDS011;9763;48.780;9.212;2023-08-06T19:26:49;1.80;;;1.47;;
19257;SDS011;9763;48.780;9.212;2023-08-06T19:30:13;1.60;;;1.30;;
19257;SDS011;9763;48.780;9.212;2023-08-06T19:33:37;1.90;;;1.27;;
19257;SDS011;9763;48.780;9.212;2023-08-06T19:37:03;2.70;;;1.47;;
19257;SDS011;9763;48.780;9.212;2023-08-06T19:40:27;3.10;;;1.40;;
19257;SDS011;9763;48.780;9.212;2023-08-06T19:43:51;1.80;;;1.30;;
19257;SDS011;9763;48.780;9.212;2023-08-06T19:47:17;1.47;;;1.10;;
19257;SDS011;9763;48.780;9.212;2023-08-06T19:50:40;1.77;;;1.17;;
19257;SDS011;9763;48.780;9.212;2023-08-06T19:54:06;1.90;;;1.30;;
19257;SDS011;9763;48.780;9.212;2023-08-06T19:57:30;1.63;;;1.27;;
19257;SDS011;9763;48.780;9.212;2023-08-06T20:00:54;1.50;;;1.17;;
19257;SDS011;9763;48.780;9.212;2023-08-06T20:04:20;1.80;;;1.20;;
19257;SDS011;9763;48.780;9.212;2023-08-06T20:07:45;2.70;;;1.77;;
19257;SDS011;9763;48.780;9.212;2023-08-06T20:11:09;2.37;;;1.20;;
19257;SDS011;9763;48.780;9.212;2023-08-06T20:14:33;2.23;;;1.40;;
19257;SDS011;9763;48.780;9.212;2023-08-06T20:17:59;1.60;;;1.40;;
19257;SDS011;9763;48.780;9.212;2023-08-06T20:21:23;1.77;;;1.37;;
19257;SDS011;9763;48.780;9.212;2023-08-06T20:24:47;1.90;;;1.40;;
19257;SDS011;9763;48.780;9.212;2023-08-06T20:28:12;1.63;;;1.47;;
19257;SDS011;9763;48.780;9.212;2023-08-06T20:31:35;1.60;;;1.20;;
19257;SDS011;9763;48.780;9.212;2023-08-06T20:35:00;1.50;;;1.30;;
19257;SDS011;9763;48.780;9.212;2023-08-06T20:38:24;1.90;;;1.60;;
19257;SDS011;9763;48.780;9.212;2023-08-06T20:41:47;1.90;;;1.17;;
19257;SDS011;9763;48.780;9.212;2023-08-06T20:45:13;2.00;;;1.20;;
19257;SDS011;9763;48.780;9.212;2023-08-06T20:48:37;1.97;;;1.37;;
19257;SDS011;9763;48.780;9.212;2023-08-06T20:52:00;1.47;;;1.13;;
19257;SDS011;9763;48.780;9.212;2023-08-06T20:55:26;1.70;;;1.20;;